sensor_id;sensor_type;location;lat;lon;timestamp;P1;durP1;ratioP1;P2;durP2;ratioP2
29712;SDS011;16623;53.632;10.016;2023-12-07T00:01:25;165.65;;;41.53;;
29712;SDS011;16623;53.632;10.016;2023-12-07T00:03:50;169.93;;;42.72;;
29712;SDS011;16623;53.632;10.016;2023-12-07T00:06:16;161.10;;;39.75;;
29712;SDS011;16623;53.632;10.016;2023-12-07T00:08:42;157.10;;;40.85;;
29712;SDS011;16623;53.632;10.016;2023-12-07T00:11:07;156.95;;;40.72;;
29712;SDS011;16623;53.632;10.016;2023-12-07T00:13:33;173.73;;;44.00;;
29712;SDS011;16623;53.632;10.016;2023-12-07T00:15:58;149.95;;;42.03;;
29712;SDS011;16623;53.632;10.016;2023-12-07T00:18:24;146.48;;;40.17;;
29712;SDS011;16623;53.632;10.016;2023-12-07T00:20:49;146.43;;;42.17;;
29712;SDS011;16623;53.632;10.016;2023-12-07T00:23:15;157.40;;;42.45;;
29712;SDS011;16623;53.632;10.016;2023-12-07T00:25:40;156.23;;;38.83;;
29712;SDS011;16623;53.632;10.016;2023-12-07T00:28:06;157.63;;;42.97;;
29712;SDS011;16623;53.632;10.016;2023-12-07T00:30:31;162.32;;;43.10;;
29712;SDS011;16623;53.632;10.016;2023-12-07T00:32:58;152.98;;;39.58;;
29712;SDS011;16623;53.632;10.016;2023-12-07T00:35:24;173.65;;;43.58;;
29712;SDS011;16623;53.632;10.016;2023-12-07T00:37:50;160.55;;;41.30;;
29712;SDS011;16623;53.632;10.016;2023-12-07T00:40:15;148.02;;;43.85;;
29712;SDS011;16623;53.632;10.016;2023-12-07T00:42:41;153.27;;;43.42;;
29712;SDS011;16623;53.632;10.016;2023-12-07T00:45:08;157.57;;;41.45;;
29712;SDS011;16623;53.632;10.016;2023-12-07T00:47:34;159.05;;;42.20;;
29712;SDS011;16623;53.632;10.016;2023-12-07T00:49:59;148.20;;;42.53;;
29712;SDS011;16623;53.632;10.016;2023-12-07T00:52:25;138.82;;;39.22;;
29712;SDS011;16623;53.632;10.016;2023-12-07T00:54:50;146.70;;;41.58;;
29712;SDS011;16623;53.632;10.016;2023-12-07T00:57:16;140.77;;;40.70;;
29712;SDS011;16623;53.632;10.016;2023-12-07T00:59:41;154.57;;;42.55;;
29712;SDS011;16623;53.632;10.016;2023-12-07T01:02:07;166.93;;;44.80;;
29712;SDS011;16623;53.632;10.016;2023-12-07T01:04:34;140.40;;;41.58;;
29712;SDS011;16623;53.632;10.016;2023-12-07T01:06:59;136.65;;;41.70;;
29712;SDS011;16623;53.632;10.016;2023-12-07T01:09:25;155.93;;;43.92;;
29712;SDS011;16623;53.632;10.016;2023-12-07T01:11:51;149.25;;;41.53;;
29712;SDS011;16623;53.632;10.016;2023-12-07T01:14:17;136.00;;;41.30;;
29712;SDS011;16623;53.632;10.016;2023-12-07T01:16:43;142.02;;;40.33;;
29712;SDS011;16623;53.632;10.016;2023-12-07T01:19:09;145.40;;;41.53;;
29712;SDS011;16623;53.632;10.016;2023-12-07T01:21:36;127.55;;;41.00;;
29712;SDS011;16623;53.632;10.016;2023-12-07T01:24:01;141.25;;;39.63;;
29712;SDS011;16623;53.632;10.016;2023-12-07T01:26:27;144.63;;;45.03;;
29712;SDS011;16623;53.632;10.016;2023-12-07T01:28:53;125.32;;;37.40;;
29712;SDS011;16623;53.632;10.016;2023-12-07T01:31:18;122.07;;;38.92;;
29712;SDS011;16623;53.632;10.016;2023-12-07T01:33:44;143.88;;;40.05;;
29712;SDS011;16623;53.632;10.016;2023-12-07T01:36:10;132.95;;;38.63;;
29712;SDS011;16623;53.632;10.016;2023-12-07T01:38:36;125.38;;;38.97;;
29712;SDS011;16623;53.632;10.016;2023-12-07T01:41:01;121.45;;;38.20;;
29712;SDS011;16623;53.632;10.016;2023-12-07T01:43:27;127.88;;;39.22;;
29712;SDS011;16623;53.632;10.016;2023-12-07T01:45:53;118.32;;;38.20;;
29712;SDS011;16623;53.632;10.016;2023-12-07T01:48:21;133.70;;;40.20;;
29712;SDS011;16623;53.632;10.016;2023-12-07T01:50:48;125.57;;;37.97;;
29712;SDS011;16623;53.632;10.016;2023-12-07T01:53:14;121.38;;;39.10;;
29712;SDS011;16623;53.632;10.016;2023-12-07T01:55:40;113.72;;;37.10;;
29712;SDS011;16623;53.632;10.016;2023-12-07T01:58:06;136.07;;;38.03;;
29712;SDS011;16623;53.632;10.016;2023-12-07T02:00:33;114.28;;;38.10;;
29712;SDS011;16623;53.632;10.016;2023-12-07T02:02:59;107.38;;;36.70;;
29712;SDS011;16623;53.632;10.016;2023-12-07T02:05:27;135.30;;;39.60;;
29712;SDS011;16623;53.632;10.016;2023-12-07T02:07:54;104.43;;;36.85;;
29712;SDS011;16623;53.632;10.016;2023-12-07T02:10:19;110.18;;;35.33;;
29712;SDS011;16623;53.632;10.016;2023-12-07T02:12:45;118.80;;;38.55;;
29712;SDS011;16623;53.632;10.016;2023-12-07T02:15:12;126.32;;;38.97;;
29712;SDS011;16623;53.632;10.016;2023-12-07T02:21:03;122.75;;;37.92;;
29712;SDS011;16623;53.632;10.016;2023-12-07T02:23:45;114.47;;;36.53;;
29712;SDS011;16623;53.632;10.016;2023-12-07T02:26:20;126.95;;;33.92;;
29712;SDS011;16623;53.632;10.016;2023-12-07T02:28:53;120.57;;;36.58;;
29712;SDS011;16623;53.632;10.016;2023-12-07T02:31:18;120.53;;;38.20;;
29712;SDS011;16623;53.632;10.016;2023-12-07T02:33:44;118.82;;;36.15;;
29712;SDS011;16623;53.632;10.016;2023-12-07T02:36:10;127.93;;;38.28;;
29712;SDS011;16623;53.632;10.016;2023-12-07T02:38:39;120.97;;;37.17;;
29712;SDS011;16623;53.632;10.016;2023-12-07T02:41:06;125.47;;;38.40;;
29712;SDS011;16623;53.632;10.016;2023-12-07T02:43:33;147.82;;;41.05;;
29712;SDS011;16623;53.632;10.016;2023-12-07T02:45:59;110.05;;;36.58;;
29712;SDS011;16623;53.632;10.016;2023-12-07T02:48:25;119.20;;;37.53;;
29712;SDS011;16623;53.632;10.016;2023-12-07T02:50:51;127.53;;;38.28;;
29712;SDS011;16623;53.632;10.016;2023-12-07T02:53:16;133.35;;;39.83;;
29712;SDS011;16623;53.632;10.016;2023-12-07T02:55:42;107.05;;;34.67;;
29712;SDS011;16623;53.632;10.016;2023-12-07T02:58:08;126.72;;;34.97;;
29712;SDS011;16623;53.632;10.016;2023-12-07T03:00:34;117.25;;;32.25;;
29712;SDS011;16623;53.632;10.016;2023-12-07T03:02:59;106.10;;;34.35;;
29712;SDS011;16623;53.632;10.016;2023-12-07T03:05:25;104.80;;;32.53;;
29712;SDS011;16623;53.632;10.016;2023-12-07T03:07:52;105.50;;;32.30;;
29712;SDS011;16623;53.632;10.016;2023-12-07T03:10:17;105.95;;;35.03;;
29712;SDS011;16623;53.632;10.016;2023-12-07T03:12:43;107.88;;;33.85;;
29712;SDS011;16623;53.632;10.016;2023-12-07T03:15:08;115.10;;;34.67;;
29712;SDS011;16623;53.632;10.016;2023-12-07T03:17:35;103.85;;;34.83;;
29712;SDS011;16623;53.632;10.016;2023-12-07T03:20:00;113.65;;;33.72;;
29712;SDS011;16623;53.632;10.016;2023-12-07T03:22:26;112.47;;;32.72;;
29712;SDS011;16623;53.632;10.016;2023-12-07T03:24:52;115.70;;;37.00;;
29712;SDS011;16623;53.632;10.016;2023-12-07T03:27:18;112.03;;;34.72;;
29712;SDS011;16623;53.632;10.016;2023-12-07T03:29:44;103.82;;;35.72;;
29712;SDS011;16623;53.632;10.016;2023-12-07T03:32:10;103.47;;;33.05;;
29712;SDS011;16623;53.632;10.016;2023-12-07T03:34:35;95.07;;;32.10;;
29712;SDS011;16623;53.632;10.016;2023-12-07T03:39:54;105.22;;;33.42;;
29712;SDS011;16623;53.632;10.016;2023-12-07T03:42:20;90.10;;;33.20;;
29712;SDS011;16623;53.632;10.016;2023-12-07T03:44:45;86.57;;;31.63;;
29712;SDS011;16623;53.632;10.016;2023-12-07T03:47:11;87.75;;;33.10;;
29712;SDS011;16623;53.632;10.016;2023-12-07T03:49:36;94.32;;;33.15;;
29712;SDS011;16623;53.632;10.016;2023-12-07T03:52:03;101.63;;;33.95;;
29712;SDS011;16623;53.632;10.016;2023-12-07T03:54:29;105.55;;;33.42;;
29712;SDS011;16623;53.632;10.016;2023-12-07T03:56:55;94.15;;;31.70;;
29712;SDS011;16623;53.632;10.016;2023-12-07T03:59:21;98.05;;;33.67;;
29712;SDS011;16623;53.632;10.016;2023-12-07T04:01:46;97.22;;;32.22;;
29712;SDS011;16623;53.632;10.016;2023-12-07T04:04:13;94.15;;;32.95;;
29712;SDS011;16623;53.632;10.016;2023-12-07T04:06:38;90.68;;;33.08;;
29712;SDS011;16623;53.632;10.016;2023-12-07T04:09:04;93.32;;;32.05;;
29712;SDS011;16623;53.632;10.016;2023-12-07T04:11:29;96.22;;;33.88;;
29712;SDS011;16623;53.632;10.016;2023-12-07T04:13:55;101.43;;;34.45;;
29712;SDS011;16623;53.632;10.016;2023-12-07T04:16:21;101.10;;;34.50;;
29712;SDS011;16623;53.632;10.016;2023-12-07T04:18:46;90.40;;;33.53;;
29712;SDS011;16623;53.632;10.016;2023-12-07T04:21:12;101.18;;;34.67;;
29712;SDS011;16623;53.632;10.016;2023-12-07T04:23:37;93.70;;;34.90;;
29712;SDS011;16623;53.632;10.016;2023-12-07T04:26:03;102.72;;;35.10;;
29712;SDS011;16623;53.632;10.016;2023-12-07T04:28:29;89.93;;;31.00;;
29712;SDS011;16623;53.632;10.016;2023-12-07T04:30:55;92.57;;;32.47;;
29712;SDS011;16623;53.632;10.016;2023-12-07T04:33:20;90.25;;;32.88;;
29712;SDS011;16623;53.632;10.016;2023-12-07T04:35:46;95.28;;;33.38;;
29712;SDS011;16623;53.632;10.016;2023-12-07T04:38:12;90.18;;;32.65;;
29712;SDS011;16623;53.632;10.016;2023-12-07T04:40:38;85.25;;;31.98;;
29712;SDS011;16623;53.632;10.016;2023-12-07T04:43:03;93.43;;;34.55;;
29712;SDS011;16623;53.632;10.016;2023-12-07T04:45:29;93.85;;;34.13;;
29712;SDS011;16623;53.632;10.016;2023-12-07T04:47:55;92.35;;;33.03;;
29712;SDS011;16623;53.632;10.016;2023-12-07T04:50:22;92.68;;;33.10;;
29712;SDS011;16623;53.632;10.016;2023-12-07T04:52:48;91.88;;;33.90;;
29712;SDS011;16623;53.632;10.016;2023-12-07T04:55:14;82.30;;;32.50;;
29712;SDS011;16623;53.632;10.016;2023-12-07T04:57:40;81.22;;;32.50;;
29712;SDS011;16623;53.632;10.016;2023-12-07T05:00:06;84.53;;;29.45;;
29712;SDS011;16623;53.632;10.016;2023-12-07T05:02:37;81.68;;;29.02;;
29712;SDS011;16623;53.632;10.016;2023-12-07T05:05:03;88.40;;;32.45;;
29712;SDS011;16623;53.632;10.016;2023-12-07T05:07:30;72.60;;;29.25;;
29712;SDS011;16623;53.632;10.016;2023-12-07T05:09:55;81.80;;;31.02;;
29712;SDS011;16623;53.632;10.016;2023-12-07T05:12:21;81.07;;;31.65;;
29712;SDS011;16623;53.632;10.016;2023-12-07T05:14:46;81.05;;;31.40;;
29712;SDS011;16623;53.632;10.016;2023-12-07T05:17:12;76.97;;;31.98;;
29712;SDS011;16623;53.632;10.016;2023-12-07T05:19:37;78.47;;;31.55;;
29712;SDS011;16623;53.632;10.016;2023-12-07T05:22:03;76.60;;;30.20;;
29712;SDS011;16623;53.632;10.016;2023-12-07T05:24:29;84.95;;;32.13;;
29712;SDS011;16623;53.632;10.016;2023-12-07T05:26:56;76.90;;;30.35;;
29712;SDS011;16623;53.632;10.016;2023-12-07T05:29:22;71.22;;;29.60;;
29712;SDS011;16623;53.632;10.016;2023-12-07T05:31:48;70.50;;;28.67;;
29712;SDS011;16623;53.632;10.016;2023-12-07T05:34:15;76.82;;;29.35;;
29712;SDS011;16623;53.632;10.016;2023-12-07T05:36:41;82.18;;;31.00;;
29712;SDS011;16623;53.632;10.016;2023-12-07T05:39:07;68.00;;;29.52;;
29712;SDS011;16623;53.632;10.016;2023-12-07T05:41:32;74.22;;;30.90;;
29712;SDS011;16623;53.632;10.016;2023-12-07T05:43:58;66.70;;;28.85;;
29712;SDS011;16623;53.632;10.016;2023-12-07T05:46:24;72.95;;;31.55;;
29712;SDS011;16623;53.632;10.016;2023-12-07T05:48:49;68.10;;;27.23;;
29712;SDS011;16623;53.632;10.016;2023-12-07T05:51:16;67.32;;;29.92;;
29712;SDS011;16623;53.632;10.016;2023-12-07T05:53:42;69.90;;;30.02;;
29712;SDS011;16623;53.632;10.016;2023-12-07T05:56:09;79.68;;;34.10;;
29712;SDS011;16623;53.632;10.016;2023-12-07T05:58:35;77.63;;;29.38;;
29712;SDS011;16623;53.632;10.016;2023-12-07T06:01:01;66.85;;;29.35;;
29712;SDS011;16623;53.632;10.016;2023-12-07T06:03:27;66.45;;;28.42;;
29712;SDS011;16623;53.632;10.016;2023-12-07T06:05:55;64.07;;;27.55;;
29712;SDS011;16623;53.632;10.016;2023-12-07T06:08:21;75.15;;;31.63;;
29712;SDS011;16623;53.632;10.016;2023-12-07T06:10:47;70.35;;;29.42;;
29712;SDS011;16623;53.632;10.016;2023-12-07T06:13:13;75.50;;;31.10;;
29712;SDS011;16623;53.632;10.016;2023-12-07T06:15:39;73.47;;;31.38;;
29712;SDS011;16623;53.632;10.016;2023-12-07T06:18:05;70.85;;;29.80;;
29712;SDS011;16623;53.632;10.016;2023-12-07T06:20:30;74.80;;;30.38;;
29712;SDS011;16623;53.632;10.016;2023-12-07T06:22:57;70.05;;;29.75;;
29712;SDS011;16623;53.632;10.016;2023-12-07T06:25:23;69.72;;;29.45;;
29712;SDS011;16623;53.632;10.016;2023-12-07T06:27:49;74.10;;;28.63;;
29712;SDS011;16623;53.632;10.016;2023-12-07T06:30:15;68.20;;;28.40;;
29712;SDS011;16623;53.632;10.016;2023-12-07T06:32:41;73.80;;;30.73;;
29712;SDS011;16623;53.632;10.016;2023-12-07T06:35:07;65.57;;;28.38;;
29712;SDS011;16623;53.632;10.016;2023-12-07T06:37:33;67.45;;;28.17;;
29712;SDS011;16623;53.632;10.016;2023-12-07T06:39:59;72.40;;;30.13;;
29712;SDS011;16623;53.632;10.016;2023-12-07T06:42:25;72.35;;;29.73;;
29712;SDS011;16623;53.632;10.016;2023-12-07T06:44:51;66.60;;;27.55;;
29712;SDS011;16623;53.632;10.016;2023-12-07T06:47:16;72.35;;;28.85;;
29712;SDS011;16623;53.632;10.016;2023-12-07T06:49:43;60.85;;;27.17;;
29712;SDS011;16623;53.632;10.016;2023-12-07T06:52:09;76.25;;;31.15;;
29712;SDS011;16623;53.632;10.016;2023-12-07T06:54:36;63.33;;;28.08;;
29712;SDS011;16623;53.632;10.016;2023-12-07T06:57:01;72.90;;;27.05;;
29712;SDS011;16623;53.632;10.016;2023-12-07T06:59:27;72.90;;;29.35;;
29712;SDS011;16623;53.632;10.016;2023-12-07T07:01:53;74.10;;;28.27;;
29712;SDS011;16623;53.632;10.016;2023-12-07T07:04:19;72.88;;;30.27;;
29712;SDS011;16623;53.632;10.016;2023-12-07T07:06:44;70.07;;;28.20;;
29712;SDS011;16623;53.632;10.016;2023-12-07T07:09:10;77.13;;;30.13;;
29712;SDS011;16623;53.632;10.016;2023-12-07T07:11:37;76.90;;;29.00;;
29712;SDS011;16623;53.632;10.016;2023-12-07T07:14:03;78.82;;;29.45;;
29712;SDS011;16623;53.632;10.016;2023-12-07T07:16:29;66.75;;;29.30;;
29712;SDS011;16623;53.632;10.016;2023-12-07T07:18:55;74.63;;;29.52;;
29712;SDS011;16623;53.632;10.016;2023-12-07T07:21:20;70.60;;;28.83;;
29712;SDS011;16623;53.632;10.016;2023-12-07T07:23:46;63.03;;;29.50;;
29712;SDS011;16623;53.632;10.016;2023-12-07T07:26:12;64.05;;;26.88;;
29712;SDS011;16623;53.632;10.016;2023-12-07T07:28:41;75.55;;;30.48;;
29712;SDS011;16623;53.632;10.016;2023-12-07T07:31:07;69.03;;;29.80;;
29712;SDS011;16623;53.632;10.016;2023-12-07T07:33:33;70.60;;;30.42;;
29712;SDS011;16623;53.632;10.016;2023-12-07T07:35:58;64.07;;;26.40;;
29712;SDS011;16623;53.632;10.016;2023-12-07T07:38:24;67.15;;;29.13;;
29712;SDS011;16623;53.632;10.016;2023-12-07T07:40:49;76.70;;;30.35;;
29712;SDS011;16623;53.632;10.016;2023-12-07T07:43:15;64.85;;;29.50;;
29712;SDS011;16623;53.632;10.016;2023-12-07T07:45:41;65.75;;;26.83;;
29712;SDS011;16623;53.632;10.016;2023-12-07T07:48:06;65.95;;;28.67;;
29712;SDS011;16623;53.632;10.016;2023-12-07T07:50:32;67.70;;;28.45;;
29712;SDS011;16623;53.632;10.016;2023-12-07T07:52:58;69.97;;;28.48;;
29712;SDS011;16623;53.632;10.016;2023-12-07T07:55:23;68.45;;;28.27;;
29712;SDS011;16623;53.632;10.016;2023-12-07T07:57:49;65.43;;;29.40;;
29712;SDS011;16623;53.632;10.016;2023-12-07T08:00:14;64.93;;;28.08;;
29712;SDS011;16623;53.632;10.016;2023-12-07T08:02:41;67.65;;;29.02;;
29712;SDS011;16623;53.632;10.016;2023-12-07T08:05:07;68.55;;;28.95;;
29712;SDS011;16623;53.632;10.016;2023-12-07T08:07:34;64.15;;;26.98;;
29712;SDS011;16623;53.632;10.016;2023-12-07T08:09:59;62.28;;;28.20;;
29712;SDS011;16623;53.632;10.016;2023-12-07T08:12:25;66.72;;;27.63;;
29712;SDS011;16623;53.632;10.016;2023-12-07T08:14:51;71.30;;;28.17;;
29712;SDS011;16623;53.632;10.016;2023-12-07T08:17:16;59.90;;;29.42;;
29712;SDS011;16623;53.632;10.016;2023-12-07T08:19:43;67.63;;;29.40;;
29712;SDS011;16623;53.632;10.016;2023-12-07T08:22:09;73.80;;;30.02;;
29712;SDS011;16623;53.632;10.016;2023-12-07T08:24:35;68.85;;;27.98;;
29712;SDS011;16623;53.632;10.016;2023-12-07T08:27:02;60.72;;;28.70;;
29712;SDS011;16623;53.632;10.016;2023-12-07T08:29:28;69.53;;;29.35;;
29712;SDS011;16623;53.632;10.016;2023-12-07T08:31:54;70.85;;;30.30;;
29712;SDS011;16623;53.632;10.016;2023-12-07T08:34:19;66.47;;;27.10;;
29712;SDS011;16623;53.632;10.016;2023-12-07T08:36:45;70.13;;;29.70;;
29712;SDS011;16623;53.632;10.016;2023-12-07T08:39:12;63.15;;;29.38;;
29712;SDS011;16623;53.632;10.016;2023-12-07T08:41:37;63.50;;;29.10;;
29712;SDS011;16623;53.632;10.016;2023-12-07T08:44:04;77.32;;;29.58;;
29712;SDS011;16623;53.632;10.016;2023-12-07T08:46:29;65.35;;;28.35;;
29712;SDS011;16623;53.632;10.016;2023-12-07T08:48:55;71.45;;;29.67;;
29712;SDS011;16623;53.632;10.016;2023-12-07T08:51:21;73.28;;;30.10;;
29712;SDS011;16623;53.632;10.016;2023-12-07T08:53:46;66.78;;;31.75;;
29712;SDS011;16623;53.632;10.016;2023-12-07T08:56:12;71.47;;;31.45;;
29712;SDS011;16623;53.632;10.016;2023-12-07T08:58:38;64.18;;;28.98;;
29712;SDS011;16623;53.632;10.016;2023-12-07T09:01:04;67.75;;;31.30;;
29712;SDS011;16623;53.632;10.016;2023-12-07T09:03:32;66.05;;;29.23;;
29712;SDS011;16623;53.632;10.016;2023-12-07T09:06:01;73.80;;;30.85;;
29712;SDS011;16623;53.632;10.016;2023-12-07T09:08:27;76.82;;;32.80;;
29712;SDS011;16623;53.632;10.016;2023-12-07T09:10:53;91.70;;;34.47;;
29712;SDS011;16623;53.632;10.016;2023-12-07T09:13:18;65.93;;;32.22;;
29712;SDS011;16623;53.632;10.016;2023-12-07T09:15:44;73.57;;;32.28;;
29712;SDS011;16623;53.632;10.016;2023-12-07T09:18:09;77.63;;;32.47;;
29712;SDS011;16623;53.632;10.016;2023-12-07T09:20:39;78.15;;;36.08;;
29712;SDS011;16623;53.632;10.016;2023-12-07T09:23:10;73.68;;;32.35;;
29712;SDS011;16623;53.632;10.016;2023-12-07T09:25:36;88.78;;;34.28;;
29712;SDS011;16623;53.632;10.016;2023-12-07T09:28:02;73.82;;;32.63;;
29712;SDS011;16623;53.632;10.016;2023-12-07T09:30:27;75.68;;;32.78;;
29712;SDS011;16623;53.632;10.016;2023-12-07T09:32:53;90.72;;;34.55;;
29712;SDS011;16623;53.632;10.016;2023-12-07T09:35:19;76.47;;;33.22;;
29712;SDS011;16623;53.632;10.016;2023-12-07T09:37:45;86.70;;;36.17;;
29712;SDS011;16623;53.632;10.016;2023-12-07T09:40:14;77.30;;;34.85;;
29712;SDS011;16623;53.632;10.016;2023-12-07T09:42:45;83.50;;;36.22;;
29712;SDS011;16623;53.632;10.016;2023-12-07T09:45:11;80.03;;;35.28;;
29712;SDS011;16623;53.632;10.016;2023-12-07T09:47:38;80.97;;;33.17;;
29712;SDS011;16623;53.632;10.016;2023-12-07T09:50:05;72.13;;;32.28;;
29712;SDS011;16623;53.632;10.016;2023-12-07T09:52:34;80.60;;;33.60;;
29712;SDS011;16623;53.632;10.016;2023-12-07T09:55:03;81.95;;;34.10;;
29712;SDS011;16623;53.632;10.016;2023-12-07T09:57:29;83.13;;;34.47;;
29712;SDS011;16623;53.632;10.016;2023-12-07T09:59:55;73.68;;;32.78;;
29712;SDS011;16623;53.632;10.016;2023-12-07T10:02:22;79.82;;;34.50;;
29712;SDS011;16623;53.632;10.016;2023-12-07T10:04:48;86.53;;;36.10;;
29712;SDS011;16623;53.632;10.016;2023-12-07T10:07:34;70.57;;;32.55;;
29712;SDS011;16623;53.632;10.016;2023-12-07T10:10:02;75.80;;;33.28;;
29712;SDS011;16623;53.632;10.016;2023-12-07T10:12:32;76.30;;;32.47;;
29712;SDS011;16623;53.632;10.016;2023-12-07T10:15:05;73.75;;;32.80;;
29712;SDS011;16623;53.632;10.016;2023-12-07T10:17:47;73.70;;;32.30;;
29712;SDS011;16623;53.632;10.016;2023-12-07T10:20:15;79.25;;;33.78;;
29712;SDS011;16623;53.632;10.016;2023-12-07T10:22:48;96.68;;;38.20;;
29712;SDS011;16623;53.632;10.016;2023-12-07T10:25:15;77.47;;;35.22;;
29712;SDS011;16623;53.632;10.016;2023-12-07T10:27:46;93.10;;;36.60;;
29712;SDS011;16623;53.632;10.016;2023-12-07T10:30:12;91.15;;;35.97;;
29712;SDS011;16623;53.632;10.016;2023-12-07T10:32:38;86.30;;;35.53;;
29712;SDS011;16623;53.632;10.016;2023-12-07T10:35:05;81.82;;;33.60;;
29712;SDS011;16623;53.632;10.016;2023-12-07T10:37:32;77.90;;;35.63;;
29712;SDS011;16623;53.632;10.016;2023-12-07T10:39:57;87.63;;;37.08;;
29712;SDS011;16623;53.632;10.016;2023-12-07T10:42:24;84.10;;;34.55;;
29712;SDS011;16623;53.632;10.016;2023-12-07T10:44:50;79.53;;;34.35;;
29712;SDS011;16623;53.632;10.016;2023-12-07T10:47:22;71.60;;;33.55;;
29712;SDS011;16623;53.632;10.016;2023-12-07T10:49:48;69.68;;;31.92;;
29712;SDS011;16623;53.632;10.016;2023-12-07T10:52:20;73.22;;;32.22;;
29712;SDS011;16623;53.632;10.016;2023-12-07T10:57:19;68.10;;;34.08;;
29712;SDS011;16623;53.632;10.016;2023-12-07T10:59:46;74.28;;;33.47;;
29712;SDS011;16623;53.632;10.016;2023-12-07T11:02:15;70.60;;;33.10;;
29712;SDS011;16623;53.632;10.016;2023-12-07T11:04:41;85.65;;;34.05;;
29712;SDS011;16623;53.632;10.016;2023-12-07T11:07:10;77.00;;;33.58;;
29712;SDS011;16623;53.632;10.016;2023-12-07T11:09:41;73.60;;;32.65;;
29712;SDS011;16623;53.632;10.016;2023-12-07T11:12:20;66.57;;;31.42;;
29712;SDS011;16623;53.632;10.016;2023-12-07T11:14:56;71.85;;;29.88;;
29712;SDS011;16623;53.632;10.016;2023-12-07T11:17:22;70.95;;;30.85;;
29712;SDS011;16623;53.632;10.016;2023-12-07T11:19:47;66.85;;;31.58;;
29712;SDS011;16623;53.632;10.016;2023-12-07T11:22:13;73.95;;;30.25;;
29712;SDS011;16623;53.632;10.016;2023-12-07T11:24:52;71.78;;;30.88;;
29712;SDS011;16623;53.632;10.016;2023-12-07T11:27:28;71.07;;;32.58;;
29712;SDS011;16623;53.632;10.016;2023-12-07T11:29:57;71.88;;;32.47;;
29712;SDS011;16623;53.632;10.016;2023-12-07T11:32:25;72.32;;;31.00;;
29712;SDS011;16623;53.632;10.016;2023-12-07T11:34:52;73.50;;;30.52;;
29712;SDS011;16623;53.632;10.016;2023-12-07T11:37:17;72.25;;;29.55;;
29712;SDS011;16623;53.632;10.016;2023-12-07T11:39:44;65.75;;;30.15;;
29712;SDS011;16623;53.632;10.016;2023-12-07T11:42:15;69.82;;;32.67;;
29712;SDS011;16623;53.632;10.016;2023-12-07T11:44:43;65.70;;;30.35;;
29712;SDS011;16623;53.632;10.016;2023-12-07T11:47:15;72.47;;;29.30;;
29712;SDS011;16623;53.632;10.016;2023-12-07T11:49:42;62.08;;;29.30;;
29712;SDS011;16623;53.632;10.016;2023-12-07T11:54:40;64.55;;;30.73;;
29712;SDS011;16623;53.632;10.016;2023-12-07T11:57:06;62.83;;;29.17;;
29712;SDS011;16623;53.632;10.016;2023-12-07T11:59:32;65.60;;;28.40;;
29712;SDS011;16623;53.632;10.016;2023-12-07T12:02:01;58.88;;;28.88;;
29712;SDS011;16623;53.632;10.016;2023-12-07T12:04:29;62.72;;;28.70;;
29712;SDS011;16623;53.632;10.016;2023-12-07T12:06:56;59.63;;;29.38;;
29712;SDS011;16623;53.632;10.016;2023-12-07T12:09:24;54.17;;;25.52;;
29712;SDS011;16623;53.632;10.016;2023-12-07T12:11:49;59.53;;;26.52;;
29712;SDS011;16623;53.632;10.016;2023-12-07T12:14:15;58.30;;;27.90;;
29712;SDS011;16623;53.632;10.016;2023-12-07T12:16:42;55.38;;;25.98;;
29712;SDS011;16623;53.632;10.016;2023-12-07T12:19:08;53.92;;;25.42;;
29712;SDS011;16623;53.632;10.016;2023-12-07T12:21:34;55.55;;;25.75;;
29712;SDS011;16623;53.632;10.016;2023-12-07T12:24:06;48.85;;;24.52;;
29712;SDS011;16623;53.632;10.016;2023-12-07T12:26:33;56.13;;;27.52;;
29712;SDS011;16623;53.632;10.016;2023-12-07T12:29:01;59.30;;;27.40;;
29712;SDS011;16623;53.632;10.016;2023-12-07T12:31:27;56.20;;;25.23;;
29712;SDS011;16623;53.632;10.016;2023-12-07T12:33:54;58.15;;;26.80;;
29712;SDS011;16623;53.632;10.016;2023-12-07T12:36:20;53.97;;;27.58;;
29712;SDS011;16623;53.632;10.016;2023-12-07T12:38:48;58.63;;;27.50;;
29712;SDS011;16623;53.632;10.016;2023-12-07T12:41:18;57.80;;;26.45;;
29712;SDS011;16623;53.632;10.016;2023-12-07T12:43:44;52.83;;;26.08;;
29712;SDS011;16623;53.632;10.016;2023-12-07T12:46:10;51.90;;;25.38;;
29712;SDS011;16623;53.632;10.016;2023-12-07T12:48:36;53.88;;;27.70;;
29712;SDS011;16623;53.632;10.016;2023-12-07T12:51:08;54.72;;;25.98;;
29712;SDS011;16623;53.632;10.016;2023-12-07T12:53:46;54.05;;;26.42;;
29712;SDS011;16623;53.632;10.016;2023-12-07T12:56:12;56.70;;;26.70;;
29712;SDS011;16623;53.632;10.016;2023-12-07T12:58:38;54.53;;;26.85;;
29712;SDS011;16623;53.632;10.016;2023-12-07T13:01:04;51.72;;;27.92;;
29712;SDS011;16623;53.632;10.016;2023-12-07T13:03:31;60.03;;;27.30;;
29712;SDS011;16623;53.632;10.016;2023-12-07T13:05:57;58.03;;;26.98;;
29712;SDS011;16623;53.632;10.016;2023-12-07T13:08:23;55.20;;;27.05;;
29712;SDS011;16623;53.632;10.016;2023-12-07T13:10:48;61.63;;;28.92;;
29712;SDS011;16623;53.632;10.016;2023-12-07T13:13:15;57.85;;;26.50;;
29712;SDS011;16623;53.632;10.016;2023-12-07T13:15:41;63.70;;;28.95;;
29712;SDS011;16623;53.632;10.016;2023-12-07T13:18:07;63.97;;;29.80;;
29712;SDS011;16623;53.632;10.016;2023-12-07T13:20:33;62.25;;;28.42;;
29712;SDS011;16623;53.632;10.016;2023-12-07T13:23:00;55.80;;;28.15;;
29712;SDS011;16623;53.632;10.016;2023-12-07T13:25:26;65.10;;;26.88;;
29712;SDS011;16623;53.632;10.016;2023-12-07T13:27:51;57.00;;;26.77;;
29712;SDS011;16623;53.632;10.016;2023-12-07T13:30:17;54.47;;;27.38;;
29712;SDS011;16623;53.632;10.016;2023-12-07T13:32:43;58.30;;;29.05;;
29712;SDS011;16623;53.632;10.016;2023-12-07T13:35:09;65.40;;;27.35;;
29712;SDS011;16623;53.632;10.016;2023-12-07T13:37:34;62.60;;;28.70;;
29712;SDS011;16623;53.632;10.016;2023-12-07T13:40:01;63.85;;;29.50;;
29712;SDS011;16623;53.632;10.016;2023-12-07T13:42:30;68.43;;;31.02;;
29712;SDS011;16623;53.632;10.016;2023-12-07T13:44:56;70.05;;;32.17;;
29712;SDS011;16623;53.632;10.016;2023-12-07T13:47:23;70.13;;;32.90;;
29712;SDS011;16623;53.632;10.016;2023-12-07T13:49:54;73.07;;;32.05;;
29712;SDS011;16623;53.632;10.016;2023-12-07T13:52:21;73.05;;;32.22;;
29712;SDS011;16623;53.632;10.016;2023-12-07T13:54:47;78.47;;;33.72;;
29712;SDS011;16623;53.632;10.016;2023-12-07T13:57:13;87.13;;;34.90;;
29712;SDS011;16623;53.632;10.016;2023-12-07T13:59:39;80.13;;;35.60;;
29712;SDS011;16623;53.632;10.016;2023-12-07T14:02:05;83.63;;;33.42;;
29712;SDS011;16623;53.632;10.016;2023-12-07T14:04:32;88.88;;;35.35;;
29712;SDS011;16623;53.632;10.016;2023-12-07T14:07:11;83.45;;;36.53;;
29712;SDS011;16623;53.632;10.016;2023-12-07T14:09:39;81.30;;;33.33;;
29712;SDS011;16623;53.632;10.016;2023-12-07T14:12:06;89.60;;;36.05;;
29712;SDS011;16623;53.632;10.016;2023-12-07T14:14:33;88.20;;;36.25;;